Time;durP1;ratioP1;P1;durP2;ratioP2;P2;SDS_P1;SDS_P2;PMS_P1;PMS_P2;Temp;Humidity;BMP_temperature;BMP_pressure;BME280_temperature;BME280_humidity;BME280_pressure;Samples;Min_cycle;Max_cycle;Signal;HPM_P1;HPM_P2
2022/06/17 00:00:50;;;;;;;3.65;2.50;;;;;;;12.61;74.86;101527.27;1825782;78;21059;-61
2022/06/17 00:03:20;;;;;;;3.02;1.85;;;;;;;12.56;74.81;101519.98;1826196;78;21068;-60
2022/06/17 00:05:49;;;;;;;3.25;1.95;;;;;;;12.55;74.85;101527.02;1826210;78;21554;-60
2022/06/17 00:08:20;;;;;;;4.78;2.37;;;;;;;12.55;74.75;101516.92;1826178;78;21133;-60
2022/06/17 00:10:49;;;;;;;5.78;2.08;;;;;;;12.53;74.81;101516.97;1826113;78;21153;-60
2022/06/17 00:13:19;;;;;;;3.25;2.12;;;;;;;12.48;75.21;101518.05;1826155;78;21060;-60
2022/06/17 00:15:48;;;;;;;3.20;2.22;;;;;;;12.41;75.59;101527.09;1826194;78;21084;-60
2022/06/17 00:18:18;;;;;;;4.40;1.92;;;;;;;12.36;75.55;101526.80;1826181;78;21052;-60
2022/06/17 00:20:48;;;;;;;2.33;1.50;;;;;;;12.31;75.75;101523.45;1826278;78;21063;-60
2022/06/17 00:23:20;;;;;;;5.15;2.52;;;;;;;12.24;75.92;101515.32;1826049;78;21556;-60
2022/06/17 00:25:50;;;;;;;6.83;1.65;;;;;;;12.23;75.80;101520.66;1826162;78;21064;-60
2022/06/17 00:28:21;;;;;;;3.52;1.72;;;;;;;12.21;75.69;101523.37;1826179;78;21518;-60
2022/06/17 00:30:51;;;;;;;4.65;2.15;;;;;;;12.21;75.47;101519.41;1826159;78;21126;-60
2022/06/17 00:33:20;;;;;;;3.77;2.10;;;;;;;12.19;75.55;101519.92;1826159;78;21557;-59
2022/06/17 00:35:54;;;;;;;5.33;1.77;;;;;;;12.16;75.66;101524.83;1826078;78;21048;-60
2022/06/17 00:38:26;;;;;;;7.17;2.22;;;;;;;12.12;75.83;101521.89;1826159;78;21538;-60
2022/06/17 00:40:57;;;;;;;4.65;2.30;;;;;;;12.10;75.71;101528.14;1826239;78;21056;-60
2022/06/17 00:43:31;;;;;;;5.45;1.87;;;;;;;12.08;75.70;101529.51;1826141;78;21525;-60
2022/06/17 00:46:11;;;;;;;5.25;2.80;;;;;;;12.05;75.67;101524.32;1826164;78;21051;-60
2022/06/17 00:48:43;;;;;;;4.40;2.10;;;;;;;12.02;75.72;101525.73;1826327;78;21514;-60
2022/06/17 00:51:18;;;;;;;7.60;2.00;;;;;;;11.98;75.71;101524.11;1825633;78;21135;-60
2022/06/17 00:53:59;;;;;;;5.72;2.87;;;;;;;11.90;75.98;101515.13;1826156;78;21064;-60
2022/06/17 00:56:33;;;;;;;6.10;2.33;;;;;;;11.83;76.35;101521.47;1826122;78;21064;-60
2022/06/17 00:59:05;;;;;;;7.78;1.90;;;;;;;11.78;76.55;101520.75;1826184;78;21573;-60
2022/06/17 01:01:36;;;;;;;6.17;1.98;;;;;;;11.77;76.75;101520.36;1826166;78;21138;-60
2022/06/17 01:04:09;;;;;;;6.85;1.92;;;;;;;11.75;76.91;101525.68;1824182;78;21046;-60
2022/06/17 01:06:41;;;;;;;5.10;2.10;;;;;;;11.72;76.92;101523.59;1826065;78;21181;-60
2022/06/17 01:12:05;;;;;;;2.37;1.50;;;;;;;11.62;77.42;101521.70;1825791;78;21040;-60
2022/06/17 01:14:34;;;;;;;4.50;1.95;;;;;;;11.59;77.52;101523.11;1825856;78;21047;-60
2022/06/17 01:17:07;;;;;;;5.85;2.20;;;;;;;11.59;77.46;101525.75;1825876;78;21088;-60
2022/06/17 01:19:42;;;;;;;2.83;1.70;;;;;;;11.60;77.29;101522.21;1825694;78;21084;-60
2022/06/17 01:22:30;;;;;;;4.62;1.90;;;;;;;11.59;77.35;101523.96;1825524;78;21132;-60
2022/06/17 01:25:02;;;;;;;4.83;3.27;;;;;;;11.58;77.62;101531.48;1826005;78;21153;-60
2022/06/17 01:27:33;;;;;;;6.55;2.02;;;;;;;11.52;77.88;101526.38;1825818;78;21064;-60
2022/06/17 01:30:03;;;;;;;4.33;2.25;;;;;;;11.49;77.92;101529.13;1824893;78;21119;-60
2022/06/17 01:32:35;;;;;;;8.05;2.72;;;;;;;11.48;78.07;101531.34;1826038;78;21052;-60
2022/06/17 01:35:06;;;;;;;4.85;2.30;;;;;;;11.46;78.30;101525.25;1825952;78;21095;-60
2022/06/17 01:37:35;;;;;;;5.10;1.80;;;;;;;11.43;78.54;101522.70;1825853;78;21056;-60
2022/06/17 01:40:06;;;;;;;7.50;2.52;;;;;;;11.43;78.51;101523.16;1825863;78;21180;-60
2022/06/17 01:42:36;;;;;;;6.60;1.67;;;;;;;11.43;78.29;101520.06;1825726;78;21043;-60
2022/06/17 01:45:07;;;;;;;3.10;1.60;;;;;;;11.42;78.38;101518.35;1825839;78;21110;-60
2022/06/17 01:47:38;;;;;;;3.72;1.82;;;;;;;11.42;78.39;101517.47;1825847;78;21494;-59
2022/06/17 01:50:10;;;;;;;4.35;1.57;;;;;;;11.42;78.28;101517.03;1826080;78;21523;-60
2022/06/17 01:52:44;;;;;;;4.65;1.82;;;;;;;11.43;78.22;101521.38;1825843;78;21588;-60
2022/06/17 01:55:18;;;;;;;6.00;1.80;;;;;;;11.44;78.09;101521.80;1825890;78;21158;-60
2022/06/17 01:57:56;;;;;;;4.45;1.90;;;;;;;11.46;78.15;101523.08;1825790;78;21080;-60
2022/06/17 02:00:28;;;;;;;5.03;2.25;;;;;;;11.46;78.37;101522.62;1825684;78;21088;-60
2022/06/17 02:03:00;;;;;;;4.30;2.10;;;;;;;11.46;78.38;101523.94;1825843;78;21056;-59
2022/06/17 02:05:33;;;;;;;3.98;1.92;;;;;;;11.49;78.44;101525.17;1825823;78;21080;-59
2022/06/17 02:08:04;;;;;;;6.72;2.02;;;;;;;11.51;78.46;101525.98;1825927;78;21068;-60
2022/06/17 02:10:38;;;;;;;5.00;2.50;;;;;;;11.56;78.45;101528.03;1825830;78;21142;-60
2022/06/17 02:13:09;;;;;;;6.95;1.92;;;;;;;11.62;78.39;101519.50;1825995;78;21589;-60
2022/06/17 02:15:58;;;;;;;4.28;1.95;;;;;;;11.69;78.19;101527.20;1825665;78;21076;-60
2022/06/17 02:18:43;;;;;;;6.08;1.82;;;;;;;11.79;77.98;101519.85;1824739;78;21104;-60
2022/06/17 02:21:17;;;;;;;7.53;1.98;;;;;;;11.89;77.69;101527.86;1825809;78;21562;-60
2022/06/17 02:23:46;;;;;;;7.47;2.37;;;;;;;11.96;77.40;101531.22;1825725;78;21514;-59
2022/06/17 02:26:16;;;;;;;5.40;1.50;;;;;;;12.01;77.22;101525.34;1825725;78;21514;-60
2022/06/17 02:28:47;;;;;;;4.60;1.35;;;;;;;12.12;77.03;101527.63;1825779;78;21533;-60
2022/06/17 02:31:17;;;;;;;2.35;1.55;;;;;;;12.18;76.90;101527.42;1826051;78;21032;-60
2022/06/17 02:33:51;;;;;;;5.83;1.40;;;;;;;12.32;76.69;101523.87;1825812;78;21463;-59
2022/06/17 02:36:20;;;;;;;;;;;;;;;12.38;76.27;101531.19;1828532;78;21048;-60
2022/06/17 02:38:49;;;;;;;2.72;1.22;;;;;;;12.52;76.09;101524.95;1823946;78;20144;-60
2022/06/17 02:41:21;;;;;;;3.00;1.57;;;;;;;12.64;75.71;101529.81;1825877;78;21138;-60
2022/06/17 02:43:59;;;;;;;2.08;1.50;;;;;;;12.78;75.46;101527.13;1825878;78;21052;-60
2022/06/17 02:46:34;;;;;;;3.87;0.90;;;;;;;12.90;75.21;101527.56;1825828;78;21051;-60
2022/06/17 02:49:16;;;;;;;4.90;1.52;;;;;;;13.11;74.96;101524.61;1825765;78;21154;-60
2022/06/17 02:51:46;;;;;;;1.95;1.00;;;;;;;13.31;74.58;101518.57;1825814;78;21093;-59
2022/06/17 02:54:19;;;;;;;3.42;1.20;;;;;;;13.47;73.96;101526.80;1825830;78;21158;-60
2022/06/17 02:56:50;;;;;;;3.75;1.30;;;;;;;13.62;73.54;101524.01;1825436;78;21585;-60
2022/06/17 02:59:28;;;;;;;4.37;1.42;;;;;;;13.80;73.04;101526.39;1825798;78;21565;-60
2022/06/17 03:02:00;;;;;;;2.50;1.25;;;;;;;14.03;72.97;101524.59;1825824;78;21059;-60
2022/06/17 03:04:33;;;;;;;1.60;0.90;;;;;;;14.22;72.58;101521.59;1825099;78;21551;-60
2022/06/17 03:07:07;;;;;;;2.58;1.00;;;;;;;14.37;71.61;101524.53;1825960;78;21107;-60
2022/06/17 03:09:37;;;;;;;3.00;1.20;;;;;;;14.47;70.84;101523.20;1825775;78;21068;-60
2022/06/17 03:12:09;;;;;;;2.98;1.00;;;;;;;14.59;70.30;101524.48;1825975;78;21129;-59
2022/06/17 03:15:01;;;;;;;6.55;1.25;;;;;;;14.70;70.34;101520.04;1826173;78;21577;-60
2022/06/17 03:17:32;;;;;;;5.78;1.45;;;;;;;14.78;69.87;101519.26;1826384;78;21565;-60
2022/06/17 03:20:03;;;;;;;4.90;1.27;;;;;;;14.89;69.64;101519.64;1826293;78;21052;-59
2022/06/17 03:22:32;;;;;;;5.35;1.57;;;;;;;15.05;69.64;101519.34;1826067;78;21153;-60
2022/06/17 03:25:07;;;;;;;2.20;0.98;;;;;;;15.20;69.29;101515.60;1826381;78;21783;-60
2022/06/17 03:27:38;;;;;;;3.45;1.00;;;;;;;15.37;69.17;101519.64;1826210;78;21149;-60
2022/06/17 03:30:09;;;;;;;2.52;1.02;;;;;;;15.55;68.76;101513.94;1826177;78;21151;-60
2022/06/17 03:32:40;;;;;;;4.08;1.20;;;;;;;15.71;68.49;101515.37;1826302;78;21137;-59
2022/06/17 03:35:18;;;;;;;7.40;1.40;;;;;;;15.88;68.36;101521.70;1826035;78;21076;-60
2022/06/17 03:37:52;;;;;;;3.85;1.35;;;;;;;15.93;66.82;101518.36;1825693;78;21126;-60
2022/06/17 03:40:24;;;;;;;1.67;1.07;;;;;;;15.91;65.82;101506.48;1826296;78;21083;-60
2022/06/17 03:43:04;;;;;;;1.37;0.98;;;;;;;15.95;65.62;101513.83;1825128;78;21076;-60
2022/06/17 03:45:45;;;;;;;4.70;1.45;;;;;;;16.02;65.48;101511.27;1826045;78;21076;-59
2022/06/17 03:48:25;;;;;;;1.87;1.00;;;;;;;16.10;64.98;101516.19;1826191;78;21051;-60
2022/06/17 03:50:54;;;;;;;1.40;1.05;;;;;;;16.09;64.56;101514.02;1826226;78;21056;-59
2022/06/17 03:53:30;;;;;;;1.67;1.27;;;;;;;16.30;65.06;101524.49;1825949;78;21764;-60
2022/06/17 03:56:07;;;;;;;3.27;1.27;;;;;;;16.51;64.99;101516.77;1825987;78;21146;-59
2022/06/17 03:58:40;;;;;;;1.47;0.98;;;;;;;16.64;63.88;101514.33;1826207;78;21079;-60
2022/06/17 04:01:21;;;;;;;1.70;1.17;;;;;;;16.74;63.16;101514.70;1826109;78;21114;-59
2022/06/17 04:03:57;;;;;;;7.00;1.25;;;;;;;16.91;63.19;101511.17;1825962;78;21060;-60
2022/06/17 04:06:31;;;;;;;1.42;1.12;;;;;;;17.15;62.97;101512.98;1825982;78;21814;-60
2022/06/17 04:09:18;;;;;;;1.45;0.90;;;;;;;17.39;62.58;101508.59;1826103;78;21084;-59
2022/06/17 04:11:51;;;;;;;2.08;1.40;;;;;;;17.65;62.35;101509.78;1826108;78;21080;-60
2022/06/17 04:14:33;;;;;;;4.25;1.92;;;;;;;17.98;62.16;101515.50;1826239;78;21258;-60
2022/06/17 04:17:19;;;;;;;7.83;2.05;;;;;;;18.28;61.70;101515.53;1826089;78;21695;-59
2022/06/17 04:19:52;;;;;;;3.00;1.45;;;;;;;18.62;61.47;101511.67;1826225;78;21158;-60
2022/06/17 04:22:27;;;;;;;7.33;1.82;;;;;;;19.06;61.07;101509.94;1826098;78;21088;-60
2022/06/17 04:25:12;;;;;;;7.90;2.10;;;;;;;19.43;60.07;101508.94;1804519;78;21095;-60
2022/06/17 04:30:36;;;;;;;6.67;1.35;;;;;;;20.28;59.30;101506.08;1827674;78;21154;-59
2022/06/17 04:33:08;;;;;;;16.23;2.10;;;;;;;20.76;58.69;101499.17;1827685;78;21043;-60
2022/06/17 04:35:37;;;;;;;10.40;1.40;;;;;;;21.18;58.21;101498.44;1828299;76;21106;-60
2022/06/17 04:38:06;;;;;;;6.35;1.27;;;;;;;21.57;57.29;101499.70;1827728;78;21127;-60
2022/06/17 04:40:54;;;;;;;7.08;1.17;;;;;;;21.83;55.59;101500.45;1859872;76;21140;-60
2022/06/17 04:43:31;;;;;;;3.55;0.90;;;;;;;22.15;55.36;101499.84;1829775;76;21550;-60
2022/06/17 04:46:16;;;;;;;2.35;0.90;;;;;;;22.47;54.71;101493.88;1828019;77;21274;-60
2022/06/17 04:48:47;;;;;;;4.85;1.30;;;;;;;22.53;51.27;101494.73;1827719;78;21568;-60
2022/06/17 04:51:17;;;;;;;5.17;0.95;;;;;;;22.55;50.43;101497.66;1827755;78;21130;-60
2022/06/17 04:53:48;;;;;;;2.70;1.00;;;;;;;22.62;50.48;101491.83;1827721;78;21502;-60
2022/06/17 04:56:36;;;;;;;6.28;1.15;;;;;;;22.93;50.76;101499.67;1828933;76;21174;-60
2022/06/17 04:59:28;;;;;;;7.33;1.12;;;;;;;23.25;50.35;101500.28;1807586;78;21111;-60
2022/06/17 05:01:57;;;;;;;5.53;1.15;;;;;;;23.52;49.74;101501.22;1827790;78;21434;-60
2022/06/17 05:04:44;;;;;;;3.30;1.05;;;;;;;23.99;50.11;101499.62;1827555;78;21079;-60
2022/06/17 05:07:15;;;;;;;3.67;0.80;;;;;;;24.31;49.32;101490.66;1827874;78;21095;-60
2022/06/17 05:09:59;;;;;;;1.57;0.95;;;;;;;24.68;48.79;101492.89;1827754;78;21051;-60
2022/06/17 05:12:34;;;;;;;0.60;0.60;;;;;;;25.09;48.65;101485.22;1828330;77;21087;-60
2022/06/17 05:15:08;;;;;;;2.80;0.72;;;;;;;25.59;48.39;101495.16;1827703;78;21121;-60
2022/06/17 05:17:41;;;;;;;3.52;0.80;;;;;;;25.96;46.97;101498.05;1827667;78;21526;-60
2022/06/17 05:20:19;;;;;;;0.80;0.80;;;;;;;26.11;45.94;101494.42;1827880;78;21142;-60
2022/06/17 05:22:53;;;;;;;1.57;0.70;;;;;;;26.42;46.14;101486.14;1827678;78;21146;-60
2022/06/17 05:25:26;;;;;;;2.25;0.80;;;;;;;26.65;45.37;101486.70;1827689;77;21145;-60
2022/06/17 05:27:55;;;;;;;1.52;0.70;;;;;;;26.82;45.02;101487.77;1827666;78;21142;-60
2022/06/17 05:30:23;;;;;;;4.78;1.15;;;;;;;27.03;45.08;101484.82;1827733;78;21173;-60
2022/06/17 05:32:55;;;;;;;0.75;0.50;;;;;;;27.35;44.81;101482.19;1827708;78;21087;-60
2022/06/17 05:35:26;;;;;;;7.00;1.72;;;;;;;27.54;43.29;101482.58;1827604;78;21067;-60
2022/06/17 05:37:55;;;;;;;5.70;2.20;;;;;;;27.77;42.87;101476.70;1827617;78;21146;-60
2022/06/17 05:40:26;;;;;;;6.42;1.27;;;;;;;28.08;42.82;101476.67;1827641;78;21056;-60
2022/06/17 05:42:55;;;;;;;0.88;0.60;;;;;;;28.36;42.66;101477.89;1827826;78;21110;-60
2022/06/17 05:45:27;;;;;;;2.22;0.60;;;;;;;28.60;41.78;101477.22;1827667;78;21145;-60
2022/06/17 05:48:09;;;;;;;3.12;0.80;;;;;;;28.78;41.26;101475.80;1828671;77;21554;-60
2022/06/17 05:50:42;;;;;;;1.20;0.70;;;;;;;28.99;40.71;101478.60;1848585;77;21059;-60
2022/06/17 05:53:28;;;;;;;2.83;0.90;;;;;;;29.20;40.59;101469.58;1858010;77;21103;-60
2022/06/17 05:55:58;;;;;;;3.12;1.05;;;;;;;29.28;39.87;101460.61;1806965;78;21157;-60
2022/06/17 05:58:27;;;;;;;2.75;0.98;;;;;;;29.35;39.27;101470.30;1796338;79;21590;-60
2022/06/17 06:00:57;;;;;;;0.82;0.60;;;;;;;29.52;38.67;101467.11;1775514;81;21204;-60
2022/06/17 06:03:28;;;;;;;2.60;0.75;;;;;;;29.62;38.33;101466.43;1808432;79;21133;-60
2022/06/17 06:05:58;;;;;;;4.15;1.00;;;;;;;29.78;38.13;101457.50;1808507;78;21177;-60
2022/06/17 06:08:26;;;;;;;2.20;0.80;;;;;;;29.86;37.67;101454.77;1808448;79;21090;-60
2022/06/17 06:10:55;;;;;;;4.37;0.80;;;;;;;29.98;37.31;101452.06;1808650;79;21153;-60
2022/06/17 06:13:26;;;;;;;3.50;0.72;;;;;;;30.09;37.33;101447.33;1808410;78;21178;-61
2022/06/17 06:15:56;;;;;;;4.50;0.95;;;;;;;30.29;36.94;101443.73;1808447;79;21466;-60
2022/06/17 06:18:29;;;;;;;3.15;1.50;;;;;;;30.50;36.80;101446.75;1808576;78;21084;-60
2022/06/17 06:20:59;;;;;;;6.30;1.00;;;;;;;30.71;36.35;101443.48;1808421;78;21090;-60
2022/06/17 06:23:28;;;;;;;5.33;1.05;;;;;;;30.80;36.08;101441.55;1808430;79;21074;-60
2022/06/17 06:25:58;;;;;;;3.33;0.70;;;;;;;30.84;35.34;101445.64;1808357;79;21182;-61
2022/06/17 06:28:28;;;;;;;2.05;0.78;;;;;;;30.73;34.93;101441.42;1808542;79;21122;-60
2022/06/17 06:31:04;;;;;;;3.02;0.98;;;;;;;30.73;34.65;101446.86;1814739;78;21204;-60
2022/06/17 06:33:33;;;;;;;0.98;0.60;;;;;;;30.98;34.67;101439.98;1815538;78;21132;-60
2022/06/17 06:36:02;;;;;;;1.52;0.70;;;;;;;30.96;33.56;101444.23;1814434;79;21571;-60
2022/06/17 06:38:31;;;;;;;0.82;0.60;;;;;;;30.98;33.34;101429.94;1814289;79;21485;-60
2022/06/17 06:41:02;;;;;;;1.07;0.98;;;;;;;30.92;32.55;101433.91;1814454;79;21161;-60
2022/06/17 06:43:30;;;;;;;7.97;1.32;;;;;;;31.04;32.92;101432.50;1814537;79;21055;-60
2022/06/17 06:46:20;;;;;;;4.22;0.80;;;;;;;31.28;32.95;101425.19;1814399;79;21204;-60
2022/06/17 06:48:49;;;;;;;0.80;0.60;;;;;;;31.31;32.70;101424.84;1814385;78;21125;-60
2022/06/17 06:51:22;;;;;;;5.87;0.90;;;;;;;31.37;31.81;101433.63;1814489;79;21529;-60
2022/06/17 06:53:52;;;;;;;1.17;0.78;;;;;;;31.35;31.11;101422.09;1814530;77;21102;-60
2022/06/17 06:56:21;;;;;;;1.95;0.80;;;;;;;30.97;30.09;101426.91;1814313;79;21031;-60
2022/06/17 06:58:50;;;;;;;8.45;1.07;;;;;;;30.76;30.15;101421.19;1814406;79;21078;-60
2022/06/17 07:01:18;;;;;;;3.65;1.15;;;;;;;30.90;30.88;101423.69;1814216;78;21145;-60
2022/06/17 07:03:47;;;;;;;3.50;0.60;;;;;;;31.16;30.81;101422.88;1814253;78;21603;-60
2022/06/17 07:06:16;;;;;;;3.12;0.70;;;;;;;31.02;30.55;101423.64;1814513;79;21524;-60
2022/06/17 07:08:45;;;;;;;1.40;0.60;;;;;;;31.18;30.72;101419.47;1814267;78;21133;-60
2022/06/17 07:11:16;;;;;;;1.00;0.65;;;;;;;31.38;30.55;101420.37;1814318;79;21038;-60
2022/06/17 07:13:44;;;;;;;1.12;0.65;;;;;;;31.50;30.47;101412.17;1814276;79;21051;-60
2022/06/17 07:16:14;;;;;;;2.52;0.70;;;;;;;31.47;30.27;101408.92;1814186;78;21051;-60
2022/06/17 07:18:42;;;;;;;7.78;0.70;;;;;;;31.52;29.99;101406.02;1814271;79;21494;-60
2022/06/17 07:21:13;;;;;;;1.87;0.60;;;;;;;31.73;30.03;101410.77;1814282;79;21058;-60
2022/06/17 07:23:44;;;;;;;4.97;0.72;;;;;;;31.94;29.94;101407.34;1814377;79;21039;-60
2022/06/17 07:26:18;;;;;;;2.90;0.80;;;;;;;32.14;30.20;101405.48;1814286;79;21045;-60
2022/06/17 07:31:37;;;;;;;2.47;0.70;;;;;;;32.51;28.44;101402.35;1802736;79;21081;-60
2022/06/17 07:34:05;;;;;;;2.40;0.60;;;;;;;32.32;27.78;101397.80;1832558;78;21144;-60
2022/06/17 07:42:08;;;;;;;1.60;0.65;;;;;;;32.44;27.82;101392.70;1832536;78;21046;-60
2022/06/17 07:44:37;;;;;;;2.52;1.90;;;;;;;32.55;27.17;101395.48;1832636;77;21057;-60
2022/06/17 07:47:07;;;;;;;0.98;0.70;;;;;;;32.68;27.27;101392.98;1832536;78;21491;-60
2022/06/17 07:49:37;;;;;;;2.98;0.70;;;;;;;32.81;27.28;101390.08;1832423;78;21633;-60
2022/06/17 07:52:06;;;;;;;0.85;0.60;;;;;;;32.73;26.76;101390.20;1832554;77;21061;-60
2022/06/17 07:54:35;;;;;;;1.27;0.60;;;;;;;32.74;26.79;101391.38;1832523;78;21516;-60
2022/06/17 07:57:04;;;;;;;1.27;0.70;;;;;;;32.75;26.51;101382.67;1832453;78;21124;-60
2022/06/17 07:59:32;;;;;;;2.02;0.88;;;;;;;32.77;26.43;101387.41;1802396;79;21063;-60
2022/06/17 08:02:01;;;;;;;1.87;0.70;;;;;;;32.81;25.88;101377.31;1799020;80;21179;-60
2022/06/17 08:04:29;;;;;;;1.25;0.55;;;;;;;32.71;25.64;101382.20;1832649;77;21135;-60
2022/06/17 08:06:58;;;;;;;3.92;0.50;;;;;;;32.81;25.83;101373.22;1832579;78;21065;-60
2022/06/17 08:09:28;;;;;;;1.95;0.60;;;;;;;33.26;25.91;101373.09;1832511;77;21584;-60
2022/06/17 08:11:57;;;;;;;1.20;0.70;;;;;;;33.75;25.81;101380.48;1832556;78;21574;-60
2022/06/17 08:14:26;;;;;;;0.85;0.60;;;;;;;33.78;24.74;101380.09;1832593;78;21058;-61
2022/06/17 08:16:55;;;;;;;0.90;0.60;;;;;;;33.57;24.38;101372.76;1832497;78;21536;-60
2022/06/17 08:19:24;;;;;;;1.35;0.60;;;;;;;33.45;24.11;101366.13;1832572;78;21553;-60
2022/06/17 08:21:52;;;;;;;0.50;0.50;;;;;;;33.58;24.37;101373.59;1832548;78;21105;-60
2022/06/17 08:24:21;;;;;;;2.77;0.60;;;;;;;33.49;23.67;101374.78;1832557;78;21125;-60
2022/06/17 08:26:49;;;;;;;0.50;0.50;;;;;;;33.59;23.83;101370.67;1832568;78;21126;-60
2022/06/17 08:29:19;;;;;;;1.00;0.65;;;;;;;33.51;24.26;101370.80;1832505;78;21034;-60
2022/06/17 08:31:48;;;;;;;1.52;0.57;;;;;;;33.05;24.84;101374.75;1805711;78;21091;-60
2022/06/17 08:34:17;;;;;;;1.37;0.50;;;;;;;32.39;24.94;101376.59;1846337;77;21130;-60
2022/06/17 08:36:46;;;;;;;0.75;0.60;;;;;;;31.73;25.13;101377.27;1846282;78;21048;-60
2022/06/17 08:39:16;;;;;;;2.55;0.70;;;;;;;30.84;24.75;101370.00;1846311;78;21542;-60
2022/06/17 08:42:05;;;;;;;2.77;0.70;;;;;;;30.24;25.57;101369.55;1846206;78;21590;-60
2022/06/17 08:44:37;;;;;;;0.68;0.60;;;;;;;30.00;26.10;101363.66;1846336;78;21515;-60
2022/06/17 08:47:23;;;;;;;1.22;0.78;;;;;;;29.62;26.92;101356.05;1845781;78;21143;-60
2022/06/17 08:50:13;;;;;;;1.10;0.80;;;;;;;29.39;27.29;101355.02;1845400;78;21115;-60
2022/06/17 08:53:14;;;;;;;1.42;0.75;;;;;;;29.40;27.60;101358.06;1844813;78;21592;-60
2022/06/17 08:56:02;;;;;;;1.32;0.70;;;;;;;30.28;27.60;101349.16;1846011;78;21056;-60
2022/06/17 08:58:49;;;;;;;5.25;0.90;;;;;;;31.31;27.17;101350.03;1846271;78;21565;-60
2022/06/17 09:01:21;;;;;;;1.87;0.75;;;;;;;31.77;26.95;101352.72;1846353;78;21519;-60
2022/06/17 09:04:24;;;;;;;3.65;1.05;;;;;;;31.44;27.06;101354.86;1845690;78;21059;-60
2022/06/17 09:06:55;;;;;;;2.47;0.82;;;;;;;31.76;26.89;101353.73;1845517;78;21613;-60
2022/06/17 09:09:52;;;;;;;4.72;1.17;;;;;;;32.14;26.25;101349.64;1846376;77;21139;-60
2022/06/17 09:12:40;;;;;;;3.83;1.10;;;;;;;32.41;25.88;101345.94;1846489;78;21048;-60
2022/06/17 09:15:12;;;;;;;1.55;0.60;;;;;;;32.54;25.65;101350.20;1846285;78;21589;-60
2022/06/17 09:17:49;;;;;;;1.62;0.70;;;;;;;33.05;25.34;101327.01;1846356;77;21060;-60
2022/06/17 09:20:21;;;;;;;1.67;0.60;;;;;;;33.05;25.34;101327.01;1846318;78;21514;-60
2022/06/17 09:22:52;;;;;;;1.35;0.70;;;;;;;33.18;24.77;101339.11;1846347;77;21515;-60
2022/06/17 09:25:24;;;;;;;1.00;0.68;;;;;;;32.76;24.47;101346.17;1844971;78;21134;-60
2022/06/17 09:27:54;;;;;;;4.03;0.72;;;;;;;32.66;24.88;101336.41;1845935;77;21087;-60
2022/06/17 09:30:31;;;;;;;6.42;0.75;;;;;;;32.92;25.30;101341.84;1846240;77;21059;-61
2022/06/17 09:33:01;;;;;;;3.17;0.90;;;;;;;33.10;25.16;101334.59;1846263;77;21589;-60
2022/06/17 09:35:42;;;;;;;3.05;0.65;;;;;;;33.32;25.25;101327.81;1845570;78;21048;-60
2022/06/17 09:38:22;;;;;;;3.30;1.10;;;;;;;33.45;25.16;101332.84;1846178;78;21119;-60
2022/06/17 09:41:12;;;;;;;1.65;0.78;;;;;;;33.69;24.86;101335.39;1846310;78;21052;-60
2022/06/17 09:43:53;;;;;;;1.00;0.90;;;;;;;33.49;24.35;101331.09;1797345;78;21059;-60
2022/06/17 09:46:30;;;;;;;1.20;0.60;;;;;;;33.33;24.33;101322.16;1846250;77;21585;-60
2022/06/17 09:49:01;;;;;;;2.60;0.82;;;;;;;32.72;24.71;101321.69;1846102;77;21064;-60
2022/06/17 09:51:36;;;;;;;2.47;0.80;;;;;;;32.01;25.26;101324.91;1846179;77;21060;-60
2022/06/17 09:54:38;;;;;;;3.12;0.60;;;;;;;31.83;25.72;101319.30;1846042;78;21052;-60
2022/06/17 09:57:15;;;;;;;1.20;0.70;;;;;;;32.08;26.07;101314.47;1845913;78;21443;-60
2022/06/17 09:59:47;;;;;;;2.47;1.77;;;;;;;32.26;25.72;101311.37;1834414;78;21060;-60
2022/06/17 10:02:24;;;;;;;1.55;0.82;;;;;;;32.53;25.62;101311.69;1846448;78;21044;-60
2022/06/17 10:04:55;;;;;;;1.25;0.60;;;;;;;32.82;25.53;101318.16;1846314;76;21044;-60
2022/06/17 10:07:29;;;;;;;1.02;0.60;;;;;;;33.00;25.21;101306.28;1846402;78;21122;-60
2022/06/17 10:10:24;;;;;;;1.10;0.68;;;;;;;33.01;25.11;101303.86;1846423;78;21471;-60
2022/06/17 10:13:13;;;;;;;0.68;0.53;;;;;;;32.96;24.81;101304.13;1846311;77;21080;-60
2022/06/17 10:18:48;;;;;;;5.53;0.80;;;;;;;32.06;24.64;101306.17;1846260;77;21052;-60
2022/06/17 10:21:23;;;;;;;1.65;0.60;;;;;;;32.02;25.26;101297.99;1846386;78;21056;-60
2022/06/17 10:24:07;;;;;;;1.02;0.62;;;;;;;32.13;25.40;101303.86;1846262;78;21056;-60
2022/06/17 10:26:47;;;;;;;1.15;0.70;;;;;;;32.12;25.34;101297.23;1846251;78;21052;-60
2022/06/17 10:29:45;;;;;;;2.72;0.93;;;;;;;32.17;25.37;101305.69;1845106;78;21056;-60
2022/06/17 10:32:14;;;;;;;1.02;0.75;;;;;;;31.99;24.96;101291.58;1856887;77;21099;-60
2022/06/17 10:35:01;;;;;;;3.02;1.40;;;;;;;31.70;25.06;101297.32;1867300;77;21126;-60
2022/06/17 10:37:33;;;;;;;0.90;0.62;;;;;;;31.82;25.63;101294.48;1867153;77;21055;-60
2022/06/17 10:40:02;;;;;;;2.12;0.65;;;;;;;32.06;25.64;101289.83;1867384;77;21051;-60
2022/06/17 10:42:31;;;;;;;0.80;0.60;;;;;;;32.18;25.46;101285.58;1867095;77;21545;-60
2022/06/17 10:45:02;;;;;;;2.80;0.60;;;;;;;31.94;25.04;101282.07;1867205;77;21109;-60
2022/06/17 10:47:36;;;;;;;1.47;0.50;;;;;;;31.62;25.21;101283.28;1867182;77;21075;-60
2022/06/17 10:50:08;;;;;;;2.08;0.70;;;;;;;31.29;25.34;101286.27;1866384;77;21133;-60
2022/06/17 10:52:39;;;;;;;1.62;0.60;;;;;;;31.09;25.56;101281.84;1863706;77;21580;-60
2022/06/17 10:55:17;;;;;;;7.05;0.85;;;;;;;30.87;25.75;101279.42;1866134;77;21122;-60
2022/06/17 10:58:05;;;;;;;2.27;0.65;;;;;;;30.71;25.96;101277.67;1866168;77;21067;-60
2022/06/17 11:00:34;;;;;;;1.80;0.57;;;;;;;30.68;26.22;101273.95;1867186;77;21529;-60
2022/06/17 11:03:14;;;;;;;1.75;0.70;;;;;;;30.58;26.18;101262.45;1867206;77;21562;-61
2022/06/17 11:05:44;;;;;;;1.67;0.62;;;;;;;30.54;26.33;101272.86;1863932;77;21058;-60
2022/06/17 11:08:22;;;;;;;2.72;0.70;;;;;;;30.59;26.62;101270.95;1865894;77;21099;-60
2022/06/17 11:10:57;;;;;;;2.05;0.78;;;;;;;30.65;26.83;101262.59;1867171;77;21055;-60
2022/06/17 11:13:26;;;;;;;2.10;0.60;;;;;;;30.67;27.01;101264.09;1867156;77;21051;-60
2022/06/17 11:15:58;;;;;;;3.77;0.80;;;;;;;30.63;27.23;101262.77;1867158;77;21459;-60
2022/06/17 11:18:35;;;;;;;2.45;0.80;;;;;;;30.43;27.46;101265.59;1867296;77;21051;-60
2022/06/17 11:21:06;;;;;;;2.67;1.20;;;;;;;30.20;27.84;101263.64;1867096;77;21063;-60
2022/06/17 11:23:39;;;;;;;2.55;1.17;;;;;;;30.16;27.90;101264.50;1867140;77;21043;-60
2022/06/17 11:26:20;;;;;;;2.45;0.78;;;;;;;30.19;28.05;101261.45;1867045;77;21474;-61
2022/06/17 11:28:55;;;;;;;2.25;1.37;;;;;;;30.23;27.91;101257.88;1866176;77;21047;-60
2022/06/17 11:31:26;;;;;;;1.47;0.90;;;;;;;30.29;27.87;101257.16;1867270;77;21091;-60
2022/06/17 11:33:58;;;;;;;0.72;0.60;;;;;;;30.38;28.07;101264.27;1847801;77;21088;-60
2022/06/17 11:36:36;;;;;;;1.02;0.70;;;;;;;30.48;27.96;101252.33;1846010;77;21161;-60
2022/06/17 11:39:34;;;;;;;4.87;1.40;;;;;;;30.52;27.89;101250.95;1805883;78;21056;-60
2022/06/17 11:42:00;;;;;;;8.93;0.90;;;;;;;30.54;28.07;101255.68;1843145;76;21044;-60
2022/06/17 11:44:30;;;;;;;1.17;0.62;;;;;;;30.56;28.22;101256.34;1846447;78;21036;-60
2022/06/17 11:47:03;;;;;;;1.75;0.85;;;;;;;30.54;28.08;101253.84;1846195;77;21064;-60
2022/06/17 11:49:37;;;;;;;2.42;0.70;;;;;;;30.37;28.25;101254.41;1846351;77;21052;-60
2022/06/17 11:52:10;;;;;;;3.12;1.10;;;;;;;30.35;28.39;101257.82;1846396;77;21134;-60
2022/06/17 11:54:42;;;;;;;6.22;2.22;;;;;;;30.33;28.61;101256.31;1846446;78;21048;-60
2022/06/17 11:57:16;;;;;;;1.72;0.82;;;;;;;30.26;28.80;101252.06;1845463;78;21588;-60
2022/06/17 11:59:50;;;;;;;1.12;0.90;;;;;;;30.12;29.04;101246.01;1846383;77;21068;-60
2022/06/17 12:02:20;;;;;;;2.60;0.80;;;;;;;30.08;29.01;101247.39;1846405;77;21052;-60
2022/06/17 12:04:51;;;;;;;8.15;0.98;;;;;;;30.07;29.13;101246.55;1846307;78;21491;-60
2022/06/17 12:07:41;;;;;;;1.77;0.80;;;;;;;30.06;29.09;101243.48;1846226;77;21090;-60
2022/06/17 12:10:49;;;;;;;2.45;0.80;;;;;;;29.85;29.17;101246.80;1846253;77;21691;-60
2022/06/17 12:13:33;;;;;;;1.25;0.82;;;;;;;29.71;29.20;101242.05;1846464;78;21052;-60